Malmesbury, South Africa
Current Conditions -  °F | °C
As of 10:00 PM on Thursday 23 Oct 2014 (Local Time) from FACT Reporting Station
Few Clouds Few Clouds  
Wind Chill: 64°   Ceiling: Unl
Heat Index: 64°   Visibility: 6mi
Dew Point: 59°   Wind: 20mph
Humidity: 83%   Direction: 180°S
Pressure: 30.06"   Gusts: NA
Location:  33.45°S, 18.72°E
Report Text: FACT 232000Z 18017KT 9999 FEW009 18/15 Q1018 NOSIG
Loading
Personal Weather Stations






























Interactive Weather Map
Tropical Storm Tracking
New forecast layout! Learn more

10-Day Weather Forecast

Advertisements
Track Severe Weather on mobile